sensor_id;sensor_type;location;lat;lon;timestamp;P1;durP1;ratioP1;P2;durP2;ratioP2
78205;SDS011;67480;48.920;12.880;2024-03-02T00:02:07;28.27;;;19.42;;
78205;SDS011;67480;48.920;12.880;2024-03-02T00:04:32;59.47;;;23.92;;
78205;SDS011;67480;48.920;12.880;2024-03-02T00:06:58;35.67;;;21.45;;
78205;SDS011;67480;48.920;12.880;2024-03-02T00:09:24;38.28;;;22.88;;
78205;SDS011;67480;48.920;12.880;2024-03-02T00:11:49;31.02;;;20.73;;
78205;SDS011;67480;48.920;12.880;2024-03-02T00:14:16;32.13;;;20.40;;
78205;SDS011;67480;48.920;12.880;2024-03-02T00:16:41;30.05;;;20.52;;
78205;SDS011;67480;48.920;12.880;2024-03-02T00:19:07;30.25;;;20.70;;
78205;SDS011;67480;48.920;12.880;2024-03-02T00:21:34;32.53;;;20.80;;
78205;SDS011;67480;48.920;12.880;2024-03-02T00:24:00;28.58;;;19.90;;
78205;SDS011;67480;48.920;12.880;2024-03-02T00:26:32;30.83;;;20.25;;
78205;SDS011;67480;48.920;12.880;2024-03-02T00:28:57;32.25;;;20.13;;
78205;SDS011;67480;48.920;12.880;2024-03-02T00:31:25;26.75;;;19.15;;
78205;SDS011;67480;48.920;12.880;2024-03-02T00:33:51;29.13;;;19.20;;
78205;SDS011;67480;48.920;12.880;2024-03-02T00:36:18;31.05;;;20.15;;
78205;SDS011;67480;48.920;12.880;2024-03-02T00:38:50;31.17;;;19.80;;
78205;SDS011;67480;48.920;12.880;2024-03-02T00:43:59;31.60;;;19.77;;
78205;SDS011;67480;48.920;12.880;2024-03-02T00:46:29;31.60;;;19.70;;
78205;SDS011;67480;48.920;12.880;2024-03-02T00:48:58;34.97;;;21.05;;
78205;SDS011;67480;48.920;12.880;2024-03-02T00:51:29;31.35;;;20.27;;
78205;SDS011;67480;48.920;12.880;2024-03-02T00:54:01;30.08;;;19.58;;
78205;SDS011;67480;48.920;12.880;2024-03-02T00:56:29;30.25;;;19.90;;
78205;SDS011;67480;48.920;12.880;2024-03-02T00:58:55;32.13;;;19.75;;
78205;SDS011;67480;48.920;12.880;2024-03-02T01:01:21;34.42;;;21.80;;
78205;SDS011;67480;48.920;12.880;2024-03-02T01:03:47;32.72;;;20.38;;
78205;SDS011;67480;48.920;12.880;2024-03-02T01:06:14;29.08;;;19.05;;
78205;SDS011;67480;48.920;12.880;2024-03-02T01:08:39;30.70;;;18.65;;
78205;SDS011;67480;48.920;12.880;2024-03-02T01:11:05;34.03;;;20.35;;
78205;SDS011;67480;48.920;12.880;2024-03-02T01:13:31;32.65;;;20.52;;
78205;SDS011;67480;48.920;12.880;2024-03-02T01:15:57;31.20;;;19.55;;
78205;SDS011;67480;48.920;12.880;2024-03-02T01:18:23;32.67;;;20.70;;
78205;SDS011;67480;48.920;12.880;2024-03-02T01:20:48;31.15;;;20.35;;
78205;SDS011;67480;48.920;12.880;2024-03-02T01:23:16;34.45;;;21.48;;
78205;SDS011;67480;48.920;12.880;2024-03-02T01:25:42;31.73;;;19.83;;
78205;SDS011;67480;48.920;12.880;2024-03-02T01:28:08;35.47;;;22.13;;
78205;SDS011;67480;48.920;12.880;2024-03-02T01:30:33;35.53;;;22.98;;
78205;SDS011;67480;48.920;12.880;2024-03-02T01:32:59;34.88;;;22.23;;
78205;SDS011;67480;48.920;12.880;2024-03-02T01:35:25;30.55;;;20.25;;
78205;SDS011;67480;48.920;12.880;2024-03-02T01:37:51;33.65;;;21.02;;
78205;SDS011;67480;48.920;12.880;2024-03-02T01:40:17;32.15;;;20.58;;
78205;SDS011;67480;48.920;12.880;2024-03-02T01:42:42;35.67;;;22.02;;
78205;SDS011;67480;48.920;12.880;2024-03-02T01:45:08;34.30;;;22.05;;
78205;SDS011;67480;48.920;12.880;2024-03-02T01:47:34;36.55;;;22.60;;
78205;SDS011;67480;48.920;12.880;2024-03-02T01:50:00;40.05;;;24.00;;
78205;SDS011;67480;48.920;12.880;2024-03-02T01:52:26;42.65;;;26.77;;
78205;SDS011;67480;48.920;12.880;2024-03-02T01:54:52;39.90;;;24.35;;
78205;SDS011;67480;48.920;12.880;2024-03-02T01:57:17;39.75;;;23.95;;
78205;SDS011;67480;48.920;12.880;2024-03-02T01:59:43;44.63;;;25.23;;
78205;SDS011;67480;48.920;12.880;2024-03-02T02:02:09;47.85;;;25.67;;
78205;SDS011;67480;48.920;12.880;2024-03-02T02:04:35;37.85;;;24.52;;
78205;SDS011;67480;48.920;12.880;2024-03-02T02:07:00;37.97;;;24.10;;
78205;SDS011;67480;48.920;12.880;2024-03-02T02:09:25;38.97;;;23.08;;
78205;SDS011;67480;48.920;12.880;2024-03-02T02:11:51;39.95;;;25.02;;
78205;SDS011;67480;48.920;12.880;2024-03-02T02:14:17;45.17;;;25.77;;
78205;SDS011;67480;48.920;12.880;2024-03-02T02:16:42;41.72;;;26.48;;
78205;SDS011;67480;48.920;12.880;2024-03-02T02:19:08;41.63;;;25.08;;
78205;SDS011;67480;48.920;12.880;2024-03-02T02:21:33;44.50;;;26.83;;
78205;SDS011;67480;48.920;12.880;2024-03-02T02:23:58;40.58;;;24.88;;
78205;SDS011;67480;48.920;12.880;2024-03-02T02:26:24;43.65;;;25.05;;
78205;SDS011;67480;48.920;12.880;2024-03-02T02:28:49;43.85;;;25.50;;
78205;SDS011;67480;48.920;12.880;2024-03-02T02:31:15;42.47;;;24.77;;
78205;SDS011;67480;48.920;12.880;2024-03-02T02:33:41;45.35;;;25.95;;
78205;SDS011;67480;48.920;12.880;2024-03-02T02:36:07;43.75;;;24.90;;
78205;SDS011;67480;48.920;12.880;2024-03-02T02:38:33;45.80;;;27.25;;
78205;SDS011;67480;48.920;12.880;2024-03-02T02:41:03;42.63;;;25.55;;
78205;SDS011;67480;48.920;12.880;2024-03-02T02:43:29;44.15;;;26.50;;
78205;SDS011;67480;48.920;12.880;2024-03-02T02:45:54;44.30;;;26.15;;
78205;SDS011;67480;48.920;12.880;2024-03-02T02:48:20;42.35;;;25.40;;
78205;SDS011;67480;48.920;12.880;2024-03-02T02:50:45;48.97;;;26.65;;
78205;SDS011;67480;48.920;12.880;2024-03-02T02:53:14;47.53;;;26.75;;
78205;SDS011;67480;48.920;12.880;2024-03-02T02:55:39;43.20;;;27.13;;
78205;SDS011;67480;48.920;12.880;2024-03-02T02:58:11;40.13;;;25.20;;
78205;SDS011;67480;48.920;12.880;2024-03-02T03:00:37;41.60;;;25.23;;
78205;SDS011;67480;48.920;12.880;2024-03-02T03:03:05;41.65;;;26.23;;
78205;SDS011;67480;48.920;12.880;2024-03-02T03:05:31;43.70;;;25.52;;
78205;SDS011;67480;48.920;12.880;2024-03-02T03:07:56;39.00;;;24.42;;
78205;SDS011;67480;48.920;12.880;2024-03-02T03:10:22;38.63;;;24.95;;
78205;SDS011;67480;48.920;12.880;2024-03-02T03:12:48;41.50;;;25.02;;
78205;SDS011;67480;48.920;12.880;2024-03-02T03:15:14;41.92;;;24.92;;
78205;SDS011;67480;48.920;12.880;2024-03-02T03:17:41;39.25;;;24.33;;
78205;SDS011;67480;48.920;12.880;2024-03-02T03:20:06;40.55;;;24.10;;
78205;SDS011;67480;48.920;12.880;2024-03-02T03:22:35;40.55;;;24.75;;
78205;SDS011;67480;48.920;12.880;2024-03-02T03:25:00;40.50;;;24.60;;
78205;SDS011;67480;48.920;12.880;2024-03-02T03:27:26;40.13;;;24.88;;
78205;SDS011;67480;48.920;12.880;2024-03-02T03:29:51;42.08;;;25.50;;
78205;SDS011;67480;48.920;12.880;2024-03-02T03:32:17;41.28;;;24.15;;
78205;SDS011;67480;48.920;12.880;2024-03-02T03:34:42;44.28;;;25.63;;
78205;SDS011;67480;48.920;12.880;2024-03-02T03:37:08;40.05;;;25.15;;
78205;SDS011;67480;48.920;12.880;2024-03-02T03:39:33;41.45;;;24.85;;
78205;SDS011;67480;48.920;12.880;2024-03-02T03:42:00;41.08;;;24.13;;
78205;SDS011;67480;48.920;12.880;2024-03-02T03:44:26;39.40;;;24.70;;
78205;SDS011;67480;48.920;12.880;2024-03-02T03:46:51;41.63;;;25.90;;
78205;SDS011;67480;48.920;12.880;2024-03-02T03:49:16;43.28;;;24.58;;
78205;SDS011;67480;48.920;12.880;2024-03-02T03:51:42;41.70;;;23.77;;
78205;SDS011;67480;48.920;12.880;2024-03-02T03:54:07;44.33;;;25.75;;
78205;SDS011;67480;48.920;12.880;2024-03-02T03:56:33;48.08;;;25.20;;
78205;SDS011;67480;48.920;12.880;2024-03-02T03:58:58;49.38;;;25.65;;
78205;SDS011;67480;48.920;12.880;2024-03-02T04:01:24;41.65;;;25.23;;
78205;SDS011;67480;48.920;12.880;2024-03-02T04:03:53;38.78;;;24.58;;
78205;SDS011;67480;48.920;12.880;2024-03-02T04:06:18;45.50;;;26.42;;
78205;SDS011;67480;48.920;12.880;2024-03-02T04:08:44;40.83;;;24.48;;
78205;SDS011;67480;48.920;12.880;2024-03-02T04:11:09;38.80;;;24.90;;
78205;SDS011;67480;48.920;12.880;2024-03-02T04:13:34;42.53;;;25.45;;
78205;SDS011;67480;48.920;12.880;2024-03-02T04:16:00;40.85;;;25.80;;
78205;SDS011;67480;48.920;12.880;2024-03-02T04:18:25;40.60;;;24.65;;
78205;SDS011;67480;48.920;12.880;2024-03-02T04:20:50;41.80;;;25.67;;
78205;SDS011;67480;48.920;12.880;2024-03-02T04:23:16;39.63;;;24.58;;
78205;SDS011;67480;48.920;12.880;2024-03-02T04:25:41;40.88;;;24.73;;
78205;SDS011;67480;48.920;12.880;2024-03-02T04:28:06;40.40;;;25.08;;
78205;SDS011;67480;48.920;12.880;2024-03-02T04:30:32;37.70;;;24.50;;
78205;SDS011;67480;48.920;12.880;2024-03-02T04:32:57;44.38;;;24.35;;
78205;SDS011;67480;48.920;12.880;2024-03-02T04:35:22;40.88;;;24.55;;
78205;SDS011;67480;48.920;12.880;2024-03-02T04:37:48;38.40;;;23.55;;
78205;SDS011;67480;48.920;12.880;2024-03-02T04:40:13;39.15;;;24.50;;
78205;SDS011;67480;48.920;12.880;2024-03-02T04:42:39;38.92;;;22.77;;
78205;SDS011;67480;48.920;12.880;2024-03-02T04:45:05;40.50;;;23.95;;
78205;SDS011;67480;48.920;12.880;2024-03-02T04:47:31;41.92;;;25.08;;
78205;SDS011;67480;48.920;12.880;2024-03-02T04:49:57;37.15;;;23.48;;
78205;SDS011;67480;48.920;12.880;2024-03-02T04:52:22;40.53;;;23.88;;
78205;SDS011;67480;48.920;12.880;2024-03-02T04:54:47;37.88;;;24.45;;
78205;SDS011;67480;48.920;12.880;2024-03-02T04:57:31;38.70;;;24.53;;
78205;SDS011;67480;48.920;12.880;2024-03-02T04:59:57;36.78;;;24.25;;
78205;SDS011;67480;48.920;12.880;2024-03-02T05:02:22;40.17;;;24.05;;
78205;SDS011;67480;48.920;12.880;2024-03-02T05:04:47;38.20;;;23.10;;
78205;SDS011;67480;48.920;12.880;2024-03-02T05:07:13;40.40;;;24.83;;
78205;SDS011;67480;48.920;12.880;2024-03-02T05:09:39;38.58;;;23.45;;
78205;SDS011;67480;48.920;12.880;2024-03-02T05:12:05;37.40;;;23.42;;
78205;SDS011;67480;48.920;12.880;2024-03-02T05:14:36;42.45;;;24.85;;
78205;SDS011;67480;48.920;12.880;2024-03-02T05:17:03;39.75;;;24.50;;
78205;SDS011;67480;48.920;12.880;2024-03-02T05:19:29;38.08;;;23.20;;
78205;SDS011;67480;48.920;12.880;2024-03-02T05:21:54;35.38;;;22.63;;
78205;SDS011;67480;48.920;12.880;2024-03-02T05:24:19;37.13;;;24.25;;
78205;SDS011;67480;48.920;12.880;2024-03-02T05:26:45;38.35;;;23.95;;
78205;SDS011;67480;48.920;12.880;2024-03-02T05:29:10;40.33;;;26.02;;
78205;SDS011;67480;48.920;12.880;2024-03-02T05:31:35;38.30;;;24.85;;
78205;SDS011;67480;48.920;12.880;2024-03-02T05:34:01;35.63;;;22.75;;
78205;SDS011;67480;48.920;12.880;2024-03-02T05:36:26;37.75;;;22.73;;
78205;SDS011;67480;48.920;12.880;2024-03-02T05:38:51;40.17;;;24.48;;
78205;SDS011;67480;48.920;12.880;2024-03-02T05:41:17;37.20;;;22.95;;
78205;SDS011;67480;48.920;12.880;2024-03-02T05:43:42;40.88;;;24.77;;
78205;SDS011;67480;48.920;12.880;2024-03-02T05:46:08;38.55;;;24.08;;
78205;SDS011;67480;48.920;12.880;2024-03-02T05:48:33;38.40;;;24.02;;
78205;SDS011;67480;48.920;12.880;2024-03-02T05:50:59;36.08;;;22.95;;
78205;SDS011;67480;48.920;12.880;2024-03-02T05:53:24;36.17;;;22.83;;
78205;SDS011;67480;48.920;12.880;2024-03-02T05:55:50;33.75;;;21.88;;
78205;SDS011;67480;48.920;12.880;2024-03-02T05:58:20;36.35;;;23.38;;
78205;SDS011;67480;48.920;12.880;2024-03-02T06:00:56;37.05;;;22.95;;
78205;SDS011;67480;48.920;12.880;2024-03-02T06:03:22;39.55;;;24.40;;
78205;SDS011;67480;48.920;12.880;2024-03-02T06:05:47;38.50;;;23.85;;
78205;SDS011;67480;48.920;12.880;2024-03-02T06:08:14;37.53;;;23.42;;
78205;SDS011;67480;48.920;12.880;2024-03-02T06:10:39;37.90;;;22.80;;
78205;SDS011;67480;48.920;12.880;2024-03-02T06:13:05;42.08;;;23.67;;
78205;SDS011;67480;48.920;12.880;2024-03-02T06:15:30;38.65;;;24.90;;
78205;SDS011;67480;48.920;12.880;2024-03-02T06:17:56;38.35;;;23.33;;
78205;SDS011;67480;48.920;12.880;2024-03-02T06:20:21;37.33;;;22.60;;
78205;SDS011;67480;48.920;12.880;2024-03-02T06:22:46;37.25;;;22.90;;
78205;SDS011;67480;48.920;12.880;2024-03-02T06:25:12;38.10;;;22.95;;
78205;SDS011;67480;48.920;12.880;2024-03-02T06:27:38;34.40;;;22.50;;
78205;SDS011;67480;48.920;12.880;2024-03-02T06:30:06;34.53;;;21.67;;
78205;SDS011;67480;48.920;12.880;2024-03-02T06:32:33;37.72;;;23.65;;
78205;SDS011;67480;48.920;12.880;2024-03-02T06:34:59;30.58;;;20.83;;
78205;SDS011;67480;48.920;12.880;2024-03-02T06:37:24;37.08;;;22.75;;
78205;SDS011;67480;48.920;12.880;2024-03-02T06:39:50;35.47;;;21.42;;
78205;SDS011;67480;48.920;12.880;2024-03-02T06:42:15;39.78;;;24.48;;
78205;SDS011;67480;48.920;12.880;2024-03-02T06:44:40;36.28;;;21.83;;
78205;SDS011;67480;48.920;12.880;2024-03-02T06:47:09;35.40;;;22.45;;
78205;SDS011;67480;48.920;12.880;2024-03-02T06:49:34;39.90;;;23.00;;
78205;SDS011;67480;48.920;12.880;2024-03-02T06:52:00;37.83;;;23.23;;
78205;SDS011;67480;48.920;12.880;2024-03-02T06:54:25;36.70;;;23.17;;
78205;SDS011;67480;48.920;12.880;2024-03-02T06:56:51;36.10;;;23.73;;
78205;SDS011;67480;48.920;12.880;2024-03-02T06:59:16;41.00;;;26.92;;
78205;SDS011;67480;48.920;12.880;2024-03-02T07:01:41;38.45;;;25.55;;
78205;SDS011;67480;48.920;12.880;2024-03-02T07:04:08;39.55;;;24.38;;
78205;SDS011;67480;48.920;12.880;2024-03-02T07:06:33;41.30;;;25.00;;
78205;SDS011;67480;48.920;12.880;2024-03-02T07:08:59;42.13;;;25.45;;
78205;SDS011;67480;48.920;12.880;2024-03-02T07:11:24;38.60;;;25.27;;
78205;SDS011;67480;48.920;12.880;2024-03-02T07:13:49;37.30;;;23.45;;
78205;SDS011;67480;48.920;12.880;2024-03-02T07:16:15;42.28;;;25.30;;
78205;SDS011;67480;48.920;12.880;2024-03-02T07:18:58;40.50;;;24.58;;
78205;SDS011;67480;48.920;12.880;2024-03-02T07:21:24;34.92;;;23.30;;
78205;SDS011;67480;48.920;12.880;2024-03-02T07:23:50;36.95;;;23.00;;
78205;SDS011;67480;48.920;12.880;2024-03-02T07:26:15;32.63;;;21.27;;
78205;SDS011;67480;48.920;12.880;2024-03-02T07:28:43;34.78;;;22.10;;
78205;SDS011;67480;48.920;12.880;2024-03-02T07:31:12;35.80;;;22.63;;
78205;SDS011;67480;48.920;12.880;2024-03-02T07:33:37;35.17;;;22.98;;
78205;SDS011;67480;48.920;12.880;2024-03-02T07:36:02;33.95;;;22.52;;
78205;SDS011;67480;48.920;12.880;2024-03-02T07:38:28;33.35;;;22.05;;
78205;SDS011;67480;48.920;12.880;2024-03-02T07:40:54;34.85;;;23.10;;
78205;SDS011;67480;48.920;12.880;2024-03-02T07:43:20;34.45;;;21.83;;
78205;SDS011;67480;48.920;12.880;2024-03-02T07:45:46;34.28;;;21.35;;
78205;SDS011;67480;48.920;12.880;2024-03-02T07:48:12;34.70;;;22.00;;
78205;SDS011;67480;48.920;12.880;2024-03-02T07:50:38;34.15;;;21.88;;
78205;SDS011;67480;48.920;12.880;2024-03-02T07:53:04;35.60;;;22.88;;
78205;SDS011;67480;48.920;12.880;2024-03-02T07:55:30;31.73;;;21.42;;
78205;SDS011;67480;48.920;12.880;2024-03-02T07:57:56;31.23;;;20.63;;
78205;SDS011;67480;48.920;12.880;2024-03-02T08:00:22;35.58;;;22.33;;
78205;SDS011;67480;48.920;12.880;2024-03-02T08:02:48;33.95;;;21.83;;
78205;SDS011;67480;48.920;12.880;2024-03-02T08:05:13;32.88;;;22.40;;
78205;SDS011;67480;48.920;12.880;2024-03-02T08:07:39;32.50;;;21.25;;
78205;SDS011;67480;48.920;12.880;2024-03-02T08:10:12;33.30;;;21.23;;
78205;SDS011;67480;48.920;12.880;2024-03-02T08:12:37;34.05;;;21.73;;
78205;SDS011;67480;48.920;12.880;2024-03-02T08:15:03;33.38;;;21.38;;
78205;SDS011;67480;48.920;12.880;2024-03-02T08:17:29;33.55;;;22.02;;
78205;SDS011;67480;48.920;12.880;2024-03-02T08:19:55;35.50;;;22.67;;
78205;SDS011;67480;48.920;12.880;2024-03-02T08:22:21;35.60;;;23.13;;
78205;SDS011;67480;48.920;12.880;2024-03-02T08:24:46;36.28;;;22.30;;
78205;SDS011;67480;48.920;12.880;2024-03-02T08:27:12;35.60;;;22.52;;
78205;SDS011;67480;48.920;12.880;2024-03-02T08:29:37;36.03;;;22.15;;
78205;SDS011;67480;48.920;12.880;2024-03-02T08:32:03;37.17;;;23.17;;
78205;SDS011;67480;48.920;12.880;2024-03-02T08:34:30;34.92;;;23.10;;
78205;SDS011;67480;48.920;12.880;2024-03-02T08:36:55;36.53;;;22.23;;
78205;SDS011;67480;48.920;12.880;2024-03-02T08:39:20;36.15;;;21.35;;
78205;SDS011;67480;48.920;12.880;2024-03-02T08:41:46;36.17;;;22.90;;
78205;SDS011;67480;48.920;12.880;2024-03-02T08:44:12;34.90;;;21.15;;
78205;SDS011;67480;48.920;12.880;2024-03-02T08:46:38;34.60;;;21.80;;
78205;SDS011;67480;48.920;12.880;2024-03-02T08:49:05;34.20;;;22.30;;
78205;SDS011;67480;48.920;12.880;2024-03-02T08:51:30;36.70;;;22.20;;
78205;SDS011;67480;48.920;12.880;2024-03-02T08:53:56;34.22;;;21.88;;
78205;SDS011;67480;48.920;12.880;2024-03-02T08:56:23;33.25;;;21.60;;
78205;SDS011;67480;48.920;12.880;2024-03-02T08:58:49;37.05;;;23.75;;
78205;SDS011;67480;48.920;12.880;2024-03-02T09:01:15;32.63;;;20.10;;
78205;SDS011;67480;48.920;12.880;2024-03-02T09:03:41;32.20;;;20.90;;
78205;SDS011;67480;48.920;12.880;2024-03-02T09:06:09;33.55;;;21.13;;
78205;SDS011;67480;48.920;12.880;2024-03-02T09:08:35;34.13;;;21.73;;
78205;SDS011;67480;48.920;12.880;2024-03-02T09:11:01;36.42;;;20.95;;
78205;SDS011;67480;48.920;12.880;2024-03-02T09:13:30;33.15;;;21.20;;
78205;SDS011;67480;48.920;12.880;2024-03-02T09:15:56;33.35;;;20.92;;
78205;SDS011;67480;48.920;12.880;2024-03-02T09:18:22;29.55;;;19.65;;
78205;SDS011;67480;48.920;12.880;2024-03-02T09:20:47;28.80;;;20.17;;
78205;SDS011;67480;48.920;12.880;2024-03-02T09:23:12;29.35;;;19.73;;
78205;SDS011;67480;48.920;12.880;2024-03-02T09:25:38;31.83;;;19.80;;
78205;SDS011;67480;48.920;12.880;2024-03-02T09:28:03;32.83;;;20.27;;
78205;SDS011;67480;48.920;12.880;2024-03-02T09:30:29;31.52;;;20.73;;
78205;SDS011;67480;48.920;12.880;2024-03-02T09:32:54;29.80;;;19.58;;
78205;SDS011;67480;48.920;12.880;2024-03-02T09:35:19;30.23;;;19.63;;
78205;SDS011;67480;48.920;12.880;2024-03-02T09:37:45;30.85;;;19.85;;
78205;SDS011;67480;48.920;12.880;2024-03-02T09:40:10;28.65;;;18.80;;
78205;SDS011;67480;48.920;12.880;2024-03-02T09:42:38;30.40;;;19.60;;
78205;SDS011;67480;48.920;12.880;2024-03-02T09:45:05;30.30;;;18.83;;
78205;SDS011;67480;48.920;12.880;2024-03-02T09:47:31;29.13;;;19.60;;
78205;SDS011;67480;48.920;12.880;2024-03-02T09:49:57;28.65;;;17.73;;
78205;SDS011;67480;48.920;12.880;2024-03-02T09:52:22;28.95;;;18.60;;
78205;SDS011;67480;48.920;12.880;2024-03-02T09:54:48;28.05;;;18.02;;
78205;SDS011;67480;48.920;12.880;2024-03-02T09:57:14;24.63;;;17.60;;
78205;SDS011;67480;48.920;12.880;2024-03-02T09:59:40;26.15;;;17.08;;
78205;SDS011;67480;48.920;12.880;2024-03-02T10:02:05;28.20;;;19.20;;
78205;SDS011;67480;48.920;12.880;2024-03-02T10:04:32;26.55;;;18.10;;
78205;SDS011;67480;48.920;12.880;2024-03-02T10:07:09;24.63;;;16.60;;
78205;SDS011;67480;48.920;12.880;2024-03-02T10:09:34;27.92;;;17.75;;
78205;SDS011;67480;48.920;12.880;2024-03-02T10:12:06;29.58;;;18.88;;
78205;SDS011;67480;48.920;12.880;2024-03-02T10:14:36;27.80;;;17.75;;
78205;SDS011;67480;48.920;12.880;2024-03-02T10:17:02;27.17;;;17.85;;
78205;SDS011;67480;48.920;12.880;2024-03-02T10:19:29;31.45;;;18.50;;
78205;SDS011;67480;48.920;12.880;2024-03-02T10:21:58;27.63;;;17.92;;
78205;SDS011;67480;48.920;12.880;2024-03-02T10:24:24;28.95;;;18.13;;
78205;SDS011;67480;48.920;12.880;2024-03-02T10:26:50;26.35;;;16.77;;
78205;SDS011;67480;48.920;12.880;2024-03-02T10:29:16;27.50;;;18.50;;
78205;SDS011;67480;48.920;12.880;2024-03-02T10:31:43;26.95;;;17.23;;
78205;SDS011;67480;48.920;12.880;2024-03-02T10:34:10;27.02;;;17.38;;
78205;SDS011;67480;48.920;12.880;2024-03-02T10:36:37;26.17;;;17.55;;
78205;SDS011;67480;48.920;12.880;2024-03-02T10:39:07;26.35;;;17.25;;
78205;SDS011;67480;48.920;12.880;2024-03-02T10:41:34;27.90;;;17.63;;
78205;SDS011;67480;48.920;12.880;2024-03-02T10:44:01;28.30;;;16.83;;
78205;SDS011;67480;48.920;12.880;2024-03-02T10:46:32;26.95;;;17.95;;
78205;SDS011;67480;48.920;12.880;2024-03-02T10:48:59;27.65;;;17.33;;
78205;SDS011;67480;48.920;12.880;2024-03-02T10:51:29;27.90;;;18.17;;
78205;SDS011;67480;48.920;12.880;2024-03-02T10:53:59;26.67;;;17.95;;
78205;SDS011;67480;48.920;12.880;2024-03-02T10:56:29;27.67;;;17.88;;
78205;SDS011;67480;48.920;12.880;2024-03-02T10:59:00;27.90;;;18.05;;
78205;SDS011;67480;48.920;12.880;2024-03-02T11:01:29;26.83;;;18.23;;
78205;SDS011;67480;48.920;12.880;2024-03-02T11:03:56;30.52;;;17.65;;
78205;SDS011;67480;48.920;12.880;2024-03-02T11:06:23;25.00;;;16.17;;
78205;SDS011;67480;48.920;12.880;2024-03-02T11:08:51;27.50;;;17.13;;
78205;SDS011;67480;48.920;12.880;2024-03-02T11:11:25;26.98;;;18.10;;
78205;SDS011;67480;48.920;12.880;2024-03-02T11:13:54;26.02;;;17.33;;
78205;SDS011;67480;48.920;12.880;2024-03-02T11:19:10;26.02;;;16.08;;
78205;SDS011;67480;48.920;12.880;2024-03-02T11:21:37;23.52;;;15.55;;
78205;SDS011;67480;48.920;12.880;2024-03-02T11:26:47;27.40;;;16.90;;
78205;SDS011;67480;48.920;12.880;2024-03-02T11:32:00;22.33;;;15.35;;
78205;SDS011;67480;48.920;12.880;2024-03-02T11:34:32;24.13;;;15.90;;
78205;SDS011;67480;48.920;12.880;2024-03-02T11:36:59;26.88;;;17.25;;
78205;SDS011;67480;48.920;12.880;2024-03-02T11:39:26;26.98;;;16.80;;
78205;SDS011;67480;48.920;12.880;2024-03-02T11:41:52;26.15;;;15.98;;
78205;SDS011;67480;48.920;12.880;2024-03-02T11:44:17;25.27;;;16.58;;
78205;SDS011;67480;48.920;12.880;2024-03-02T11:47:00;26.45;;;16.35;;
78205;SDS011;67480;48.920;12.880;2024-03-02T11:50:11;24.58;;;16.05;;
78205;SDS011;67480;48.920;12.880;2024-03-02T11:52:16;24.83;;;16.13;;
78205;SDS011;67480;48.920;12.880;2024-03-02T11:54:43;24.67;;;16.65;;
78205;SDS011;67480;48.920;12.880;2024-03-02T11:57:14;23.20;;;16.17;;
78205;SDS011;67480;48.920;12.880;2024-03-02T11:59:44;26.13;;;16.15;;
78205;SDS011;67480;48.920;12.880;2024-03-02T12:02:17;25.42;;;15.65;;
78205;SDS011;67480;48.920;12.880;2024-03-02T12:04:44;23.17;;;15.52;;
78205;SDS011;67480;48.920;12.880;2024-03-02T12:07:10;21.60;;;15.68;;
78205;SDS011;67480;48.920;12.880;2024-03-02T12:09:37;26.88;;;16.98;;
78205;SDS011;67480;48.920;12.880;2024-03-02T12:12:03;24.83;;;16.83;;
78205;SDS011;67480;48.920;12.880;2024-03-02T12:14:33;24.40;;;16.02;;
78205;SDS011;67480;48.920;12.880;2024-03-02T12:17:00;22.83;;;15.85;;
78205;SDS011;67480;48.920;12.880;2024-03-02T12:19:26;27.27;;;15.45;;
78205;SDS011;67480;48.920;12.880;2024-03-02T12:21:52;22.17;;;16.45;;
78205;SDS011;67480;48.920;12.880;2024-03-02T12:24:20;25.55;;;17.00;;
78205;SDS011;67480;48.920;12.880;2024-03-02T12:26:46;23.50;;;15.80;;
78205;SDS011;67480;48.920;12.880;2024-03-02T12:29:13;26.95;;;16.75;;
78205;SDS011;67480;48.920;12.880;2024-03-02T12:31:40;24.45;;;16.95;;
78205;SDS011;67480;48.920;12.880;2024-03-02T12:34:05;24.65;;;16.25;;
78205;SDS011;67480;48.920;12.880;2024-03-02T12:36:36;22.70;;;15.20;;
78205;SDS011;67480;48.920;12.880;2024-03-02T12:39:03;22.23;;;15.82;;
78205;SDS011;67480;48.920;12.880;2024-03-02T12:41:28;28.42;;;17.40;;
78205;SDS011;67480;48.920;12.880;2024-03-02T12:43:54;24.42;;;17.55;;
78205;SDS011;67480;48.920;12.880;2024-03-02T12:46:19;24.70;;;17.38;;
78205;SDS011;67480;48.920;12.880;2024-03-02T12:48:45;28.98;;;19.27;;
78205;SDS011;67480;48.920;12.880;2024-03-02T12:51:10;25.10;;;16.95;;
78205;SDS011;67480;48.920;12.880;2024-03-02T12:53:36;26.08;;;16.83;;
78205;SDS011;67480;48.920;12.880;2024-03-02T12:56:01;22.90;;;15.80;;
78205;SDS011;67480;48.920;12.880;2024-03-02T12:58:27;25.98;;;16.55;;
78205;SDS011;67480;48.920;12.880;2024-03-02T13:01:07;26.17;;;15.63;;
78205;SDS011;67480;48.920;12.880;2024-03-02T13:03:40;26.67;;;17.63;;
78205;SDS011;67480;48.920;12.880;2024-03-02T13:06:06;22.33;;;15.95;;
78205;SDS011;67480;48.920;12.880;2024-03-02T13:08:33;22.13;;;16.20;;
78205;SDS011;67480;48.920;12.880;2024-03-02T13:10:58;21.13;;;14.65;;
78205;SDS011;67480;48.920;12.880;2024-03-02T13:13:24;22.52;;;14.07;;
78205;SDS011;67480;48.920;12.880;2024-03-02T13:15:49;23.55;;;16.23;;
78205;SDS011;67480;48.920;12.880;2024-03-02T13:18:17;23.27;;;16.05;;
78205;SDS011;67480;48.920;12.880;2024-03-02T13:20:43;22.67;;;14.93;;
78205;SDS011;67480;48.920;12.880;2024-03-02T13:23:08;22.17;;;14.73;;
78205;SDS011;67480;48.920;12.880;2024-03-02T13:25:33;18.95;;;14.30;;
78205;SDS011;67480;48.920;12.880;2024-03-02T13:27:59;21.35;;;15.10;;
78205;SDS011;67480;48.920;12.880;2024-03-02T13:30:25;22.73;;;14.50;;
78205;SDS011;67480;48.920;12.880;2024-03-02T13:32:50;22.42;;;15.05;;
78205;SDS011;67480;48.920;12.880;2024-03-02T13:35:16;20.17;;;14.68;;
78205;SDS011;67480;48.920;12.880;2024-03-02T13:37:41;22.95;;;14.48;;
78205;SDS011;67480;48.920;12.880;2024-03-02T13:40:07;19.23;;;14.32;;
78205;SDS011;67480;48.920;12.880;2024-03-02T13:42:38;20.73;;;14.50;;
78205;SDS011;67480;48.920;12.880;2024-03-02T13:45:04;22.15;;;14.35;;
78205;SDS011;67480;48.920;12.880;2024-03-02T13:47:31;19.67;;;13.82;;
78205;SDS011;67480;48.920;12.880;2024-03-02T13:49:56;17.85;;;12.70;;
78205;SDS011;67480;48.920;12.880;2024-03-02T13:52:21;18.55;;;13.25;;
78205;SDS011;67480;48.920;12.880;2024-03-02T13:54:47;17.60;;;12.85;;
78205;SDS011;67480;48.920;12.880;2024-03-02T13:57:13;18.63;;;13.10;;
78205;SDS011;67480;48.920;12.880;2024-03-02T13:59:39;20.63;;;13.02;;
78205;SDS011;67480;48.920;12.880;2024-03-02T14:02:05;17.75;;;13.07;;
78205;SDS011;67480;48.920;12.880;2024-03-02T14:04:32;18.25;;;13.27;;
78205;SDS011;67480;48.920;12.880;2024-03-02T14:06:58;19.63;;;13.35;;
78205;SDS011;67480;48.920;12.880;2024-03-02T14:09:24;18.25;;;12.60;;
78205;SDS011;67480;48.920;12.880;2024-03-02T14:11:50;21.38;;;13.35;;
78205;SDS011;67480;48.920;12.880;2024-03-02T14:14:16;19.35;;;13.90;;
78205;SDS011;67480;48.920;12.880;2024-03-02T14:16:41;19.27;;;13.52;;